Stouffville, Canada
Current Conditions -  °F | °C
As of 5:00 AM on Sunday 26 Oct 2014 (Local Time) from CYKZ Reporting Station
Few Clouds Few Clouds  
Wind Chill: 45°   Ceiling: Unl
Heat Index: 48°   Visibility: 15mi
Dew Point: 36°   Wind: 8mph
Humidity: 62%   Direction: 290°WNW
Pressure: 29.62"   Gusts: NA
Location:  43.97°N, 79.25°W
Report Text: CYKZ 260900Z 29007KT 15SM FEW050 09/02 A2962 RMK SC1 SLP032
Loading
Personal Weather Stations






























Interactive Weather Map
Tropical Storm Tracking
New forecast layout! Learn more

10-Day Weather Forecast

Advertisements
Track Severe Weather on mobile